sensor_id;sensor_type;location;lat;lon;timestamp;P1;durP1;ratioP1;P2;durP2;ratioP2
78027;SDS011;67235;45.638;11.714;2023-05-10T01:52:38;6.75;;;2.50;;
78027;SDS011;67235;45.638;11.714;2023-05-10T01:55:32;8.30;;;2.33;;
78027;SDS011;67235;45.638;11.714;2023-05-10T01:58:39;5.55;;;2.40;;
78027;SDS011;67235;45.638;11.714;2023-05-10T02:01:11;5.70;;;2.22;;
78027;SDS011;67235;45.638;11.714;2023-05-10T02:04:10;6.10;;;2.53;;
78027;SDS011;67235;45.638;11.714;2023-05-10T02:07:19;5.63;;;2.20;;
78027;SDS011;67235;45.638;11.714;2023-05-10T02:12:43;5.72;;;2.30;;
78027;SDS011;67235;45.638;11.714;2023-05-10T02:15:12;6.38;;;2.80;;
78027;SDS011;67235;45.638;11.714;2023-05-10T02:22:57;7.10;;;2.80;;
78027;SDS011;67235;45.638;11.714;2023-05-10T02:25:24;6.30;;;2.40;;
78027;SDS011;67235;45.638;11.714;2023-05-10T02:27:53;7.85;;;2.55;;
78027;SDS011;67235;45.638;11.714;2023-05-10T02:30:21;5.38;;;2.10;;
78027;SDS011;67235;45.638;11.714;2023-05-10T02:32:48;5.68;;;2.88;;
78027;SDS011;67235;45.638;11.714;2023-05-10T02:35:15;5.32;;;2.13;;
78027;SDS011;67235;45.638;11.714;2023-05-10T02:37:43;5.25;;;2.22;;
78027;SDS011;67235;45.638;11.714;2023-05-10T02:40:10;5.75;;;2.50;;
78027;SDS011;67235;45.638;11.714;2023-05-10T02:42:38;4.93;;;2.10;;
78027;SDS011;67235;45.638;11.714;2023-05-10T02:45:11;5.63;;;2.67;;
78027;SDS011;67235;45.638;11.714;2023-05-10T02:47:39;5.32;;;2.33;;
78027;SDS011;67235;45.638;11.714;2023-05-10T02:50:06;5.18;;;2.13;;
78027;SDS011;67235;45.638;11.714;2023-05-10T02:52:42;5.90;;;2.20;;
78027;SDS011;67235;45.638;11.714;2023-05-10T02:55:12;4.80;;;2.08;;
78027;SDS011;67235;45.638;11.714;2023-05-10T02:57:43;4.93;;;2.00;;
78027;SDS011;67235;45.638;11.714;2023-05-10T03:00:16;4.43;;;1.75;;
78027;SDS011;67235;45.638;11.714;2023-05-10T03:02:42;4.57;;;1.98;;
78027;SDS011;67235;45.638;11.714;2023-05-10T03:05:07;5.32;;;2.20;;
78027;SDS011;67235;45.638;11.714;2023-05-10T03:07:33;7.18;;;2.20;;
78027;SDS011;67235;45.638;11.714;2023-05-10T03:10:00;4.53;;;1.77;;
78027;SDS011;67235;45.638;11.714;2023-05-10T03:15:11;5.55;;;1.90;;
78027;SDS011;67235;45.638;11.714;2023-05-10T03:17:47;5.43;;;2.10;;
78027;SDS011;67235;45.638;11.714;2023-05-10T03:20:24;6.03;;;2.20;;
78027;SDS011;67235;45.638;11.714;2023-05-10T03:23:02;4.90;;;2.03;;
78027;SDS011;67235;45.638;11.714;2023-05-10T03:25:34;4.90;;;2.28;;
78027;SDS011;67235;45.638;11.714;2023-05-10T03:28:01;4.85;;;1.90;;
78027;SDS011;67235;45.638;11.714;2023-05-10T03:30:29;4.97;;;2.20;;
78027;SDS011;67235;45.638;11.714;2023-05-10T03:32:56;5.82;;;2.40;;
78027;SDS011;67235;45.638;11.714;2023-05-10T03:35:29;5.30;;;2.20;;
78027;SDS011;67235;45.638;11.714;2023-05-10T03:37:55;5.97;;;2.42;;
78027;SDS011;67235;45.638;11.714;2023-05-10T03:40:21;6.50;;;2.22;;
78027;SDS011;67235;45.638;11.714;2023-05-10T03:42:51;6.47;;;2.55;;
78027;SDS011;67235;45.638;11.714;2023-05-10T03:45:17;7.68;;;2.00;;
78027;SDS011;67235;45.638;11.714;2023-05-10T03:47:43;4.60;;;1.97;;
78027;SDS011;67235;45.638;11.714;2023-05-10T03:50:12;6.15;;;2.20;;
78027;SDS011;67235;45.638;11.714;2023-05-10T03:52:40;5.53;;;1.98;;
78027;SDS011;67235;45.638;11.714;2023-05-10T03:55:06;6.23;;;2.20;;
78027;SDS011;67235;45.638;11.714;2023-05-10T03:57:32;5.38;;;2.30;;
78027;SDS011;67235;45.638;11.714;2023-05-10T03:59:59;5.53;;;2.22;;
78027;SDS011;67235;45.638;11.714;2023-05-10T04:02:25;5.88;;;2.45;;
78027;SDS011;67235;45.638;11.714;2023-05-10T04:04:51;5.63;;;2.13;;
78027;SDS011;67235;45.638;11.714;2023-05-10T04:07:17;5.30;;;2.00;;
78027;SDS011;67235;45.638;11.714;2023-05-10T04:09:43;5.90;;;2.25;;
78027;SDS011;67235;45.638;11.714;2023-05-10T04:12:09;5.82;;;2.20;;
78027;SDS011;67235;45.638;11.714;2023-05-10T04:14:35;5.70;;;2.00;;
78027;SDS011;67235;45.638;11.714;2023-05-10T04:17:00;8.05;;;2.10;;
78027;SDS011;67235;45.638;11.714;2023-05-10T04:19:30;6.03;;;2.38;;
78027;SDS011;67235;45.638;11.714;2023-05-10T04:21:56;6.82;;;2.03;;
78027;SDS011;67235;45.638;11.714;2023-05-10T04:24:23;7.22;;;2.25;;
78027;SDS011;67235;45.638;11.714;2023-05-10T04:26:49;5.55;;;1.98;;
78027;SDS011;67235;45.638;11.714;2023-05-10T04:29:15;5.45;;;2.15;;
78027;SDS011;67235;45.638;11.714;2023-05-10T04:31:41;5.00;;;2.40;;
78027;SDS011;67235;45.638;11.714;2023-05-10T04:34:07;5.10;;;2.47;;
78027;SDS011;67235;45.638;11.714;2023-05-10T04:36:33;5.70;;;2.30;;
78027;SDS011;67235;45.638;11.714;2023-05-10T04:39:01;6.60;;;2.65;;
78027;SDS011;67235;45.638;11.714;2023-05-10T04:41:28;6.63;;;2.60;;
78027;SDS011;67235;45.638;11.714;2023-05-10T04:43:54;6.03;;;2.60;;
78027;SDS011;67235;45.638;11.714;2023-05-10T04:46:20;5.70;;;2.77;;
78027;SDS011;67235;45.638;11.714;2023-05-10T04:48:46;5.40;;;2.40;;
78027;SDS011;67235;45.638;11.714;2023-05-10T04:51:12;7.03;;;2.40;;
78027;SDS011;67235;45.638;11.714;2023-05-10T04:53:38;5.82;;;2.20;;
78027;SDS011;67235;45.638;11.714;2023-05-10T04:56:04;5.72;;;2.33;;
78027;SDS011;67235;45.638;11.714;2023-05-10T04:58:31;7.70;;;2.30;;
78027;SDS011;67235;45.638;11.714;2023-05-10T05:00:57;5.35;;;2.40;;
78027;SDS011;67235;45.638;11.714;2023-05-10T05:03:29;4.68;;;2.05;;
78027;SDS011;67235;45.638;11.714;2023-05-10T05:05:55;4.93;;;2.03;;
78027;SDS011;67235;45.638;11.714;2023-05-10T05:08:21;7.28;;;2.33;;
78027;SDS011;67235;45.638;11.714;2023-05-10T05:10:48;6.43;;;2.13;;
78027;SDS011;67235;45.638;11.714;2023-05-10T05:13:16;5.63;;;2.10;;
78027;SDS011;67235;45.638;11.714;2023-05-10T05:15:42;6.50;;;2.33;;
78027;SDS011;67235;45.638;11.714;2023-05-10T05:18:08;4.93;;;2.13;;
78027;SDS011;67235;45.638;11.714;2023-05-10T05:20:34;6.18;;;2.50;;
78027;SDS011;67235;45.638;11.714;2023-05-10T05:23:00;5.63;;;2.30;;
78027;SDS011;67235;45.638;11.714;2023-05-10T05:25:26;6.60;;;2.30;;
78027;SDS011;67235;45.638;11.714;2023-05-10T05:27:52;4.88;;;2.05;;
78027;SDS011;67235;45.638;11.714;2023-05-10T05:30:18;5.23;;;2.10;;
78027;SDS011;67235;45.638;11.714;2023-05-10T05:32:44;7.70;;;2.58;;
78027;SDS011;67235;45.638;11.714;2023-05-10T05:35:09;6.13;;;2.30;;
78027;SDS011;67235;45.638;11.714;2023-05-10T05:37:36;5.28;;;2.30;;
78027;SDS011;67235;45.638;11.714;2023-05-10T05:40:02;6.57;;;2.53;;
78027;SDS011;67235;45.638;11.714;2023-05-10T05:42:28;5.45;;;2.10;;
78027;SDS011;67235;45.638;11.714;2023-05-10T05:44:55;6.57;;;2.25;;
78027;SDS011;67235;45.638;11.714;2023-05-10T05:47:21;5.65;;;2.42;;
78027;SDS011;67235;45.638;11.714;2023-05-10T05:49:47;5.20;;;2.30;;
78027;SDS011;67235;45.638;11.714;2023-05-10T05:52:13;5.75;;;2.45;;
78027;SDS011;67235;45.638;11.714;2023-05-10T05:54:39;6.47;;;2.55;;
78027;SDS011;67235;45.638;11.714;2023-05-10T05:57:05;5.63;;;2.60;;
78027;SDS011;67235;45.638;11.714;2023-05-10T05:59:31;5.20;;;2.17;;
78027;SDS011;67235;45.638;11.714;2023-05-10T06:01:57;5.97;;;2.60;;
78027;SDS011;67235;45.638;11.714;2023-05-10T06:04:23;6.40;;;2.60;;
78027;SDS011;67235;45.638;11.714;2023-05-10T06:06:49;4.93;;;2.25;;
78027;SDS011;67235;45.638;11.714;2023-05-10T06:09:15;6.13;;;2.47;;
78027;SDS011;67235;45.638;11.714;2023-05-10T06:11:41;6.20;;;2.60;;
78027;SDS011;67235;45.638;11.714;2023-05-10T06:14:07;6.05;;;2.72;;
78027;SDS011;67235;45.638;11.714;2023-05-10T06:16:33;6.80;;;2.60;;
78027;SDS011;67235;45.638;11.714;2023-05-10T06:18:59;6.20;;;2.67;;
78027;SDS011;67235;45.638;11.714;2023-05-10T06:21:28;6.07;;;2.67;;
78027;SDS011;67235;45.638;11.714;2023-05-10T06:23:55;7.20;;;3.17;;
78027;SDS011;67235;45.638;11.714;2023-05-10T06:26:20;6.65;;;2.53;;
78027;SDS011;67235;45.638;11.714;2023-05-10T06:28:46;7.77;;;2.50;;
78027;SDS011;67235;45.638;11.714;2023-05-10T06:31:12;8.18;;;2.88;;
78027;SDS011;67235;45.638;11.714;2023-05-10T06:33:38;8.55;;;3.13;;
78027;SDS011;67235;45.638;11.714;2023-05-10T06:36:04;7.40;;;3.13;;
78027;SDS011;67235;45.638;11.714;2023-05-10T06:38:30;5.85;;;2.88;;
78027;SDS011;67235;45.638;11.714;2023-05-10T06:40:56;5.90;;;3.03;;
78027;SDS011;67235;45.638;11.714;2023-05-10T06:43:22;5.70;;;2.93;;
78027;SDS011;67235;45.638;11.714;2023-05-10T06:48:38;6.80;;;3.08;;
78027;SDS011;67235;45.638;11.714;2023-05-10T06:51:03;8.73;;;3.00;;
78027;SDS011;67235;45.638;11.714;2023-05-10T06:53:29;7.07;;;3.00;;
78027;SDS011;67235;45.638;11.714;2023-05-10T06:55:55;7.15;;;3.20;;
78027;SDS011;67235;45.638;11.714;2023-05-10T07:26:18;7.93;;;3.30;;
78027;SDS011;67235;45.638;11.714;2023-05-10T07:28:48;8.02;;;2.65;;
78027;SDS011;67235;45.638;11.714;2023-05-10T07:31:15;6.37;;;2.80;;
78027;SDS011;67235;45.638;11.714;2023-05-10T07:33:44;5.88;;;2.78;;
78027;SDS011;67235;45.638;11.714;2023-05-10T07:36:26;8.20;;;3.08;;
78027;SDS011;67235;45.638;11.714;2023-05-10T07:39:14;7.70;;;3.17;;
78027;SDS011;67235;45.638;11.714;2023-05-10T07:41:48;6.60;;;3.28;;
78027;SDS011;67235;45.638;11.714;2023-05-10T07:44:24;6.53;;;2.73;;
78027;SDS011;67235;45.638;11.714;2023-05-10T07:47:01;6.10;;;3.05;;
78027;SDS011;67235;45.638;11.714;2023-05-10T07:49:34;7.03;;;3.00;;
78027;SDS011;67235;45.638;11.714;2023-05-10T07:52:06;5.95;;;2.78;;
78027;SDS011;67235;45.638;11.714;2023-05-10T07:54:36;7.15;;;3.30;;
78027;SDS011;67235;45.638;11.714;2023-05-10T07:57:04;7.40;;;3.17;;
78027;SDS011;67235;45.638;11.714;2023-05-10T07:59:35;6.93;;;3.30;;
78027;SDS011;67235;45.638;11.714;2023-05-10T08:02:07;7.80;;;3.10;;
78027;SDS011;67235;45.638;11.714;2023-05-10T08:04:51;8.05;;;3.40;;
78027;SDS011;67235;45.638;11.714;2023-05-10T08:07:24;7.75;;;3.30;;
78027;SDS011;67235;45.638;11.714;2023-05-10T08:09:55;8.27;;;2.90;;
78027;SDS011;67235;45.638;11.714;2023-05-10T08:12:35;7.05;;;3.00;;
78027;SDS011;67235;45.638;11.714;2023-05-10T08:15:19;7.60;;;3.28;;
78027;SDS011;67235;45.638;11.714;2023-05-10T08:17:55;7.80;;;3.20;;
78027;SDS011;67235;45.638;11.714;2023-05-10T08:20:29;6.22;;;3.03;;
78027;SDS011;67235;45.638;11.714;2023-05-10T08:22:58;7.27;;;2.90;;
78027;SDS011;67235;45.638;11.714;2023-05-10T08:25:33;6.88;;;2.88;;
78027;SDS011;67235;45.638;11.714;2023-05-10T08:28:04;7.85;;;2.97;;
78027;SDS011;67235;45.638;11.714;2023-05-10T08:30:43;7.15;;;3.08;;
78027;SDS011;67235;45.638;11.714;2023-05-10T08:33:13;6.60;;;3.28;;
78027;SDS011;67235;45.638;11.714;2023-05-10T08:35:48;7.00;;;3.00;;
78027;SDS011;67235;45.638;11.714;2023-05-10T08:38:27;6.88;;;3.10;;
78027;SDS011;67235;45.638;11.714;2023-05-10T08:41:04;8.18;;;3.30;;
78027;SDS011;67235;45.638;11.714;2023-05-10T08:43:49;5.68;;;2.92;;
78027;SDS011;67235;45.638;11.714;2023-05-10T08:46:23;8.93;;;3.50;;
78027;SDS011;67235;45.638;11.714;2023-05-10T08:48:52;5.53;;;2.77;;
78027;SDS011;67235;45.638;11.714;2023-05-10T08:51:25;6.25;;;2.97;;
78027;SDS011;67235;45.638;11.714;2023-05-10T08:53:55;6.20;;;2.95;;
78027;SDS011;67235;45.638;11.714;2023-05-10T08:56:23;6.25;;;2.78;;
78027;SDS011;67235;45.638;11.714;2023-05-10T08:58:53;6.25;;;2.70;;
78027;SDS011;67235;45.638;11.714;2023-05-10T09:01:21;5.53;;;2.83;;
78027;SDS011;67235;45.638;11.714;2023-05-10T09:03:48;7.35;;;3.08;;
78027;SDS011;67235;45.638;11.714;2023-05-10T09:06:15;8.27;;;3.33;;
78027;SDS011;67235;45.638;11.714;2023-05-10T09:08:42;9.63;;;2.97;;
78027;SDS011;67235;45.638;11.714;2023-05-10T09:11:13;6.47;;;2.97;;
78027;SDS011;67235;45.638;11.714;2023-05-10T09:13:48;6.37;;;3.40;;
78027;SDS011;67235;45.638;11.714;2023-05-10T09:16:15;5.90;;;2.97;;
78027;SDS011;67235;45.638;11.714;2023-05-10T09:18:41;6.28;;;2.90;;
78027;SDS011;67235;45.638;11.714;2023-05-10T09:21:08;7.93;;;3.00;;
78027;SDS011;67235;45.638;11.714;2023-05-10T09:23:36;10.00;;;3.38;;
78027;SDS011;67235;45.638;11.714;2023-05-10T09:26:05;5.90;;;2.83;;
78027;SDS011;67235;45.638;11.714;2023-05-10T09:28:33;6.32;;;2.83;;
78027;SDS011;67235;45.638;11.714;2023-05-10T09:31:16;7.00;;;2.83;;
78027;SDS011;67235;45.638;11.714;2023-05-10T09:33:45;7.18;;;3.10;;
78027;SDS011;67235;45.638;11.714;2023-05-10T09:36:12;6.40;;;3.58;;
78027;SDS011;67235;45.638;11.714;2023-05-10T09:38:46;7.20;;;2.80;;
78027;SDS011;67235;45.638;11.714;2023-05-10T09:41:21;6.65;;;2.90;;
78027;SDS011;67235;45.638;11.714;2023-05-10T09:43:48;7.90;;;3.40;;
78027;SDS011;67235;45.638;11.714;2023-05-10T09:46:15;6.70;;;3.20;;
78027;SDS011;67235;45.638;11.714;2023-05-10T09:48:44;7.32;;;3.80;;
78027;SDS011;67235;45.638;11.714;2023-05-10T09:51:19;8.02;;;3.40;;
78027;SDS011;67235;45.638;11.714;2023-05-10T09:53:45;6.95;;;3.22;;
78027;SDS011;67235;45.638;11.714;2023-05-10T09:56:12;7.40;;;3.28;;
78027;SDS011;67235;45.638;11.714;2023-05-10T09:58:39;9.38;;;4.03;;
78027;SDS011;67235;45.638;11.714;2023-05-10T10:01:10;6.57;;;3.30;;
78027;SDS011;67235;45.638;11.714;2023-05-10T10:03:41;6.75;;;3.33;;
78027;SDS011;67235;45.638;11.714;2023-05-10T10:06:08;6.47;;;3.53;;
78027;SDS011;67235;45.638;11.714;2023-05-10T10:08:34;7.35;;;3.22;;
78027;SDS011;67235;45.638;11.714;2023-05-10T10:11:01;8.23;;;3.70;;
78027;SDS011;67235;45.638;11.714;2023-05-10T10:13:27;6.60;;;3.00;;
78027;SDS011;67235;45.638;11.714;2023-05-10T10:15:53;7.63;;;3.55;;
78027;SDS011;67235;45.638;11.714;2023-05-10T10:18:20;7.65;;;3.45;;
78027;SDS011;67235;45.638;11.714;2023-05-10T10:20:52;8.23;;;3.50;;
78027;SDS011;67235;45.638;11.714;2023-05-10T10:23:19;8.70;;;3.17;;
78027;SDS011;67235;45.638;11.714;2023-05-10T10:25:45;8.55;;;3.38;;
78027;SDS011;67235;45.638;11.714;2023-05-10T10:33:55;7.18;;;3.40;;
78027;SDS011;67235;45.638;11.714;2023-05-10T10:36:25;7.27;;;3.53;;
78027;SDS011;67235;45.638;11.714;2023-05-10T10:41:35;7.45;;;3.38;;
78027;SDS011;67235;45.638;11.714;2023-05-10T10:49:48;7.65;;;3.60;;
78027;SDS011;67235;45.638;11.714;2023-05-10T10:52:26;8.25;;;3.25;;
78027;SDS011;67235;45.638;11.714;2023-05-10T10:55:06;7.63;;;3.40;;
78027;SDS011;67235;45.638;11.714;2023-05-10T10:57:51;7.30;;;3.53;;
78027;SDS011;67235;45.638;11.714;2023-05-10T11:02:48;8.13;;;3.28;;
78027;SDS011;67235;45.638;11.714;2023-05-10T11:05:23;8.02;;;4.07;;
78027;SDS011;67235;45.638;11.714;2023-05-10T11:08:06;9.00;;;3.88;;
78027;SDS011;67235;45.638;11.714;2023-05-10T11:10:37;8.00;;;4.22;;
78027;SDS011;67235;45.638;11.714;2023-05-10T11:13:05;7.28;;;3.65;;
78027;SDS011;67235;45.638;11.714;2023-05-10T11:15:33;9.30;;;4.05;;
78027;SDS011;67235;45.638;11.714;2023-05-10T11:21:01;10.07;;;4.03;;
78027;SDS011;67235;45.638;11.714;2023-05-10T11:23:30;8.73;;;4.00;;
78027;SDS011;67235;45.638;11.714;2023-05-10T11:25:56;9.38;;;4.43;;
78027;SDS011;67235;45.638;11.714;2023-05-10T11:28:22;7.43;;;3.65;;
78027;SDS011;67235;45.638;11.714;2023-05-10T11:30:48;8.57;;;4.28;;
78027;SDS011;67235;45.638;11.714;2023-05-10T11:33:15;9.18;;;4.40;;
78027;SDS011;67235;45.638;11.714;2023-05-10T11:35:42;7.25;;;4.00;;
78027;SDS011;67235;45.638;11.714;2023-05-10T11:38:12;7.72;;;3.90;;
78027;SDS011;67235;45.638;11.714;2023-05-10T11:40:39;7.97;;;4.30;;
78027;SDS011;67235;45.638;11.714;2023-05-10T11:43:05;8.85;;;4.32;;
78027;SDS011;67235;45.638;11.714;2023-05-10T11:45:33;8.07;;;4.07;;
78027;SDS011;67235;45.638;11.714;2023-05-10T11:48:00;7.47;;;3.47;;
78027;SDS011;67235;45.638;11.714;2023-05-10T11:50:27;8.15;;;4.00;;
78027;SDS011;67235;45.638;11.714;2023-05-10T11:52:54;8.15;;;3.70;;
78027;SDS011;67235;45.638;11.714;2023-05-10T11:55:21;6.60;;;3.17;;
78027;SDS011;67235;45.638;11.714;2023-05-10T11:57:48;8.07;;;3.53;;
78027;SDS011;67235;45.638;11.714;2023-05-10T12:00:17;10.57;;;3.92;;
78027;SDS011;67235;45.638;11.714;2023-05-10T12:02:43;8.80;;;3.47;;
78027;SDS011;67235;45.638;11.714;2023-05-10T12:05:09;9.63;;;4.03;;
78027;SDS011;67235;45.638;11.714;2023-05-10T12:07:35;8.25;;;3.95;;
78027;SDS011;67235;45.638;11.714;2023-05-10T12:10:06;8.75;;;4.03;;
78027;SDS011;67235;45.638;11.714;2023-05-10T12:12:39;7.57;;;4.07;;
78027;SDS011;67235;45.638;11.714;2023-05-10T12:15:19;8.07;;;4.07;;
78027;SDS011;67235;45.638;11.714;2023-05-10T12:17:47;7.60;;;3.92;;
78027;SDS011;67235;45.638;11.714;2023-05-10T12:20:14;8.10;;;4.13;;
78027;SDS011;67235;45.638;11.714;2023-05-10T12:22:40;7.90;;;4.18;;
78027;SDS011;67235;45.638;11.714;2023-05-10T12:25:09;9.02;;;3.72;;
78027;SDS011;67235;45.638;11.714;2023-05-10T12:27:35;10.10;;;3.80;;
78027;SDS011;67235;45.638;11.714;2023-05-10T12:30:01;9.30;;;4.35;;
78027;SDS011;67235;45.638;11.714;2023-05-10T12:32:43;8.20;;;4.20;;
78027;SDS011;67235;45.638;11.714;2023-05-10T12:35:09;8.63;;;4.03;;
78027;SDS011;67235;45.638;11.714;2023-05-10T12:37:35;8.27;;;4.20;;
78027;SDS011;67235;45.638;11.714;2023-05-10T12:40:07;8.95;;;4.50;;
78027;SDS011;67235;45.638;11.714;2023-05-10T12:42:34;9.13;;;4.32;;
78027;SDS011;67235;45.638;11.714;2023-05-10T12:45:01;10.82;;;4.60;;
78027;SDS011;67235;45.638;11.714;2023-05-10T12:47:27;11.10;;;4.20;;
78027;SDS011;67235;45.638;11.714;2023-05-10T12:49:53;10.25;;;4.55;;
78027;SDS011;67235;45.638;11.714;2023-05-10T12:52:19;8.57;;;4.55;;
78027;SDS011;67235;45.638;11.714;2023-05-10T12:54:45;9.63;;;4.60;;
78027;SDS011;67235;45.638;11.714;2023-05-10T12:57:12;8.80;;;4.32;;
78027;SDS011;67235;45.638;11.714;2023-05-10T12:59:38;11.27;;;4.90;;
78027;SDS011;67235;45.638;11.714;2023-05-10T13:02:04;9.48;;;4.68;;
78027;SDS011;67235;45.638;11.714;2023-05-10T13:04:31;9.52;;;4.38;;
78027;SDS011;67235;45.638;11.714;2023-05-10T13:06:56;9.38;;;4.43;;
78027;SDS011;67235;45.638;11.714;2023-05-10T13:09:27;10.43;;;5.35;;
78027;SDS011;67235;45.638;11.714;2023-05-10T13:11:55;10.63;;;5.20;;
78027;SDS011;67235;45.638;11.714;2023-05-10T13:14:21;11.80;;;5.20;;
78027;SDS011;67235;45.638;11.714;2023-05-10T13:16:47;9.63;;;5.10;;
78027;SDS011;67235;45.638;11.714;2023-05-10T13:19:13;11.23;;;5.13;;
78027;SDS011;67235;45.638;11.714;2023-05-10T13:21:41;10.70;;;5.10;;
78027;SDS011;67235;45.638;11.714;2023-05-10T13:24:07;11.13;;;5.17;;
78027;SDS011;67235;45.638;11.714;2023-05-10T13:26:33;10.25;;;4.60;;
78027;SDS011;67235;45.638;11.714;2023-05-10T13:28:59;10.80;;;5.20;;
78027;SDS011;67235;45.638;11.714;2023-05-10T13:31:25;11.63;;;5.30;;
78027;SDS011;67235;45.638;11.714;2023-05-10T13:33:51;9.93;;;5.05;;
78027;SDS011;67235;45.638;11.714;2023-05-10T13:36:16;12.48;;;5.22;;
78027;SDS011;67235;45.638;11.714;2023-05-10T13:38:42;12.17;;;6.00;;
78027;SDS011;67235;45.638;11.714;2023-05-10T13:41:08;12.55;;;5.70;;
78027;SDS011;67235;45.638;11.714;2023-05-10T13:43:34;10.80;;;5.63;;
78027;SDS011;67235;45.638;11.714;2023-05-10T13:46:01;11.20;;;5.03;;
78027;SDS011;67235;45.638;11.714;2023-05-10T13:48:27;10.00;;;4.88;;
78027;SDS011;67235;45.638;11.714;2023-05-10T13:50:53;13.45;;;5.70;;
78027;SDS011;67235;45.638;11.714;2023-05-10T13:53:19;12.23;;;5.85;;
78027;SDS011;67235;45.638;11.714;2023-05-10T13:55:45;11.17;;;5.20;;
78027;SDS011;67235;45.638;11.714;2023-05-10T13:58:12;12.95;;;5.05;;
78027;SDS011;67235;45.638;11.714;2023-05-10T14:00:38;10.00;;;4.75;;
78027;SDS011;67235;45.638;11.714;2023-05-10T14:03:03;9.93;;;5.13;;
78027;SDS011;67235;45.638;11.714;2023-05-10T14:05:31;10.32;;;4.80;;
78027;SDS011;67235;45.638;11.714;2023-05-10T14:07:57;10.13;;;4.72;;
78027;SDS011;67235;45.638;11.714;2023-05-10T14:10:23;9.88;;;5.30;;
78027;SDS011;67235;45.638;11.714;2023-05-10T14:12:49;9.87;;;5.20;;
78027;SDS011;67235;45.638;11.714;2023-05-10T14:15:15;10.25;;;5.28;;
78027;SDS011;67235;45.638;11.714;2023-05-10T14:17:41;11.10;;;5.30;;
78027;SDS011;67235;45.638;11.714;2023-05-10T14:20:07;9.97;;;5.40;;
78027;SDS011;67235;45.638;11.714;2023-05-10T14:22:33;10.40;;;5.78;;
78027;SDS011;67235;45.638;11.714;2023-05-10T14:24:59;12.48;;;5.78;;
78027;SDS011;67235;45.638;11.714;2023-05-10T14:27:26;10.20;;;5.30;;
78027;SDS011;67235;45.638;11.714;2023-05-10T14:29:52;11.10;;;5.57;;
78027;SDS011;67235;45.638;11.714;2023-05-10T14:32:18;11.93;;;5.80;;
78027;SDS011;67235;45.638;11.714;2023-05-10T14:34:44;9.80;;;5.45;;
78027;SDS011;67235;45.638;11.714;2023-05-10T14:37:10;11.13;;;6.00;;
78027;SDS011;67235;45.638;11.714;2023-05-10T14:39:37;10.88;;;5.70;;
78027;SDS011;67235;45.638;11.714;2023-05-10T14:42:03;9.77;;;5.32;;
78027;SDS011;67235;45.638;11.714;2023-05-10T14:44:29;9.75;;;5.32;;
78027;SDS011;67235;45.638;11.714;2023-05-10T14:46:56;11.45;;;5.88;;
78027;SDS011;67235;45.638;11.714;2023-05-10T14:49:22;10.73;;;5.37;;
78027;SDS011;67235;45.638;11.714;2023-05-10T14:51:50;11.07;;;5.50;;
78027;SDS011;67235;45.638;11.714;2023-05-10T14:54:16;11.07;;;5.55;;
78027;SDS011;67235;45.638;11.714;2023-05-10T14:56:42;12.10;;;5.97;;
78027;SDS011;67235;45.638;11.714;2023-05-10T14:59:08;10.95;;;5.75;;
78027;SDS011;67235;45.638;11.714;2023-05-10T15:01:34;12.97;;;6.40;;
78027;SDS011;67235;45.638;11.714;2023-05-10T15:04:02;11.27;;;5.78;;
78027;SDS011;67235;45.638;11.714;2023-05-10T15:06:32;13.65;;;5.88;;
78027;SDS011;67235;45.638;11.714;2023-05-10T15:08:59;10.82;;;5.50;;
78027;SDS011;67235;45.638;11.714;2023-05-10T15:11:26;11.57;;;5.83;;
78027;SDS011;67235;45.638;11.714;2023-05-10T15:13:52;13.45;;;6.55;;
78027;SDS011;67235;45.638;11.714;2023-05-10T15:16:18;12.57;;;6.75;;
78027;SDS011;67235;45.638;11.714;2023-05-10T15:18:44;14.20;;;6.38;;
78027;SDS011;67235;45.638;11.714;2023-05-10T15:21:11;13.67;;;6.53;;
78027;SDS011;67235;45.638;11.714;2023-05-10T15:23:37;12.25;;;6.13;;
78027;SDS011;67235;45.638;11.714;2023-05-10T15:26:03;11.40;;;6.43;;
78027;SDS011;67235;45.638;11.714;2023-05-10T15:28:30;13.55;;;6.72;;
78027;SDS011;67235;45.638;11.714;2023-05-10T15:30:55;11.93;;;6.30;;
78027;SDS011;67235;45.638;11.714;2023-05-10T15:33:21;11.70;;;6.80;;
78027;SDS011;67235;45.638;11.714;2023-05-10T15:35:47;12.02;;;6.28;;
78027;SDS011;67235;45.638;11.714;2023-05-10T15:38:13;12.40;;;6.77;;
78027;SDS011;67235;45.638;11.714;2023-05-10T15:40:39;14.18;;;7.00;;
78027;SDS011;67235;45.638;11.714;2023-05-10T15:43:05;11.77;;;6.45;;
78027;SDS011;67235;45.638;11.714;2023-05-10T15:45:31;12.63;;;6.77;;
78027;SDS011;67235;45.638;11.714;2023-05-10T15:47:57;12.18;;;7.07;;
78027;SDS011;67235;45.638;11.714;2023-05-10T15:50:26;13.82;;;7.07;;
78027;SDS011;67235;45.638;11.714;2023-05-10T15:52:52;12.82;;;7.13;;
78027;SDS011;67235;45.638;11.714;2023-05-10T15:55:18;12.40;;;6.60;;
78027;SDS011;67235;45.638;11.714;2023-05-10T15:57:44;12.80;;;6.90;;
78027;SDS011;67235;45.638;11.714;2023-05-10T16:00:11;13.82;;;7.32;;
78027;SDS011;67235;45.638;11.714;2023-05-10T16:02:40;11.88;;;6.60;;
78027;SDS011;67235;45.638;11.714;2023-05-10T16:05:06;13.93;;;6.85;;
78027;SDS011;67235;45.638;11.714;2023-05-10T16:07:33;11.93;;;6.50;;
78027;SDS011;67235;45.638;11.714;2023-05-10T16:09:59;11.90;;;6.72;;
78027;SDS011;67235;45.638;11.714;2023-05-10T16:12:30;11.45;;;6.60;;
78027;SDS011;67235;45.638;11.714;2023-05-10T16:14:57;12.50;;;6.63;;
78027;SDS011;67235;45.638;11.714;2023-05-10T16:17:22;10.90;;;6.27;;
78027;SDS011;67235;45.638;11.714;2023-05-10T16:19:48;12.68;;;6.15;;
78027;SDS011;67235;45.638;11.714;2023-05-10T16:22:14;11.95;;;6.20;;
78027;SDS011;67235;45.638;11.714;2023-05-10T16:24:40;11.37;;;5.90;;
78027;SDS011;67235;45.638;11.714;2023-05-10T16:27:07;14.25;;;6.88;;
78027;SDS011;67235;45.638;11.714;2023-05-10T16:29:32;11.93;;;6.50;;
78027;SDS011;67235;45.638;11.714;2023-05-10T16:31:58;10.45;;;6.10;;
78027;SDS011;67235;45.638;11.714;2023-05-10T16:34:24;11.33;;;6.07;;
78027;SDS011;67235;45.638;11.714;2023-05-10T16:36:50;11.75;;;6.55;;
78027;SDS011;67235;45.638;11.714;2023-05-10T16:39:16;14.00;;;6.72;;
78027;SDS011;67235;45.638;11.714;2023-05-10T16:41:42;12.57;;;6.57;;
78027;SDS011;67235;45.638;11.714;2023-05-10T16:44:08;12.23;;;6.80;;
78027;SDS011;67235;45.638;11.714;2023-05-10T16:46:33;13.23;;;6.97;;
78027;SDS011;67235;45.638;11.714;2023-05-10T16:48:59;10.80;;;6.32;;
78027;SDS011;67235;45.638;11.714;2023-05-10T16:51:25;12.83;;;6.97;;
78027;SDS011;67235;45.638;11.714;2023-05-10T16:53:52;11.98;;;6.65;;
78027;SDS011;67235;45.638;11.714;2023-05-10T16:56:18;11.38;;;6.38;;
78027;SDS011;67235;45.638;11.714;2023-05-10T16:58:45;14.32;;;6.65;;
78027;SDS011;67235;45.638;11.714;2023-05-10T17:01:14;11.73;;;6.32;;
78027;SDS011;67235;45.638;11.714;2023-05-10T17:03:40;10.67;;;6.23;;
78027;SDS011;67235;45.638;11.714;2023-05-10T17:06:06;11.90;;;6.95;;
78027;SDS011;67235;45.638;11.714;2023-05-10T17:08:32;12.90;;;7.25;;
78027;SDS011;67235;45.638;11.714;2023-05-10T17:11:01;11.70;;;6.07;;
78027;SDS011;67235;45.638;11.714;2023-05-10T17:13:28;12.75;;;6.47;;
78027;SDS011;67235;45.638;11.714;2023-05-10T17:15:54;11.27;;;5.95;;
78027;SDS011;67235;45.638;11.714;2023-05-10T17:18:20;13.60;;;6.53;;
78027;SDS011;67235;45.638;11.714;2023-05-10T17:20:49;11.93;;;7.07;;
78027;SDS011;67235;45.638;11.714;2023-05-10T17:23:24;10.30;;;6.07;;
78027;SDS011;67235;45.638;11.714;2023-05-10T17:25:58;13.95;;;7.55;;
78027;SDS011;67235;45.638;11.714;2023-05-10T17:28:33;10.80;;;6.43;;
78027;SDS011;67235;45.638;11.714;2023-05-10T17:30:59;12.75;;;7.30;;